Time;durP1;ratioP1;P1;durP2;ratioP2;P2;SDS_P1;SDS_P2;PMS_P1;PMS_P2;Temp;Humidity;BMP_temperature;BMP_pressure;BME280_temperature;BME280_humidity;BME280_pressure;Samples;Min_cycle;Max_cycle;Signal;HPM_P1;HPM_P2
2021/08/01 00:09:43;;;;;;;7.85;4.50;;;;;;;18.50;69.16;99523.44;713912;1202;114669;-74
2021/08/01 00:24:46;;;;;;;8.40;3.18;;;;;;;18.34;69.67;99528.13;714065;1199;114610;-76
2021/08/01 00:39:49;;;;;;;3.37;2.07;;;;;;;17.72;71.05;99538.84;714202;1199;114278;-76
2021/08/01 00:54:51;;;;;;;8.03;3.53;;;;;;;17.45;72.66;99549.38;714183;1200;114200;-75
2021/08/01 01:10:02;;;;;;;10.40;5.23;;;;;;;17.25;74.20;99543.19;713973;1199;113723;-74
2021/08/01 01:25:12;;;;;;;14.10;6.40;;;;;;;17.14;75.77;99552.48;714294;1205;114138;-76
2021/08/01 01:40:19;;;;;;;11.87;4.07;;;;;;;16.85;76.13;99559.63;714151;1200;115430;-74
2021/08/01 01:55:23;;;;;;;10.10;5.18;;;;;;;16.59;78.08;99579.63;713986;1203;113811;-74
2021/08/01 02:10:37;;;;;;;10.05;4.38;;;;;;;16.40;78.08;99586.38;714150;1177;113795;-74
2021/08/01 02:25:41;;;;;;;7.83;3.20;;;;;;;16.20;79.41;99585.39;714225;1199;115846;-75
2021/08/01 02:40:45;;;;;;;9.30;5.53;;;;;;;16.08;80.23;99596.46;714192;1197;113641;-74
2021/08/01 02:55:51;;;;;;;11.78;5.58;;;;;;;16.35;81.40;99567.63;714304;1199;113710;-75
2021/08/01 03:10:53;;;;;;;7.23;3.88;;;;;;;16.02;81.11;99584.01;714340;1176;114214;-75
2021/08/01 03:25:55;;;;;;;6.95;3.93;;;;;;;15.87;82.29;99562.06;714521;1177;114118;-74
2021/08/01 03:40:57;;;;;;;9.88;3.75;;;;;;;15.79;84.17;99582.28;714544;1206;114979;-74
2021/08/01 03:56:03;;;;;;;7.33;4.08;;;;;;;15.77;85.54;99594.05;714635;1203;114404;-73
2021/08/01 04:11:06;;;;;;;9.38;3.80;;;;;;;16.03;85.60;99603.33;714301;1199;114005;-75
2021/08/01 04:26:09;;;;;;;9.23;4.10;;;;;;;16.46;85.59;99598.86;714482;1199;114373;-75
2021/08/01 04:41:11;;;;;;;21.47;9.83;;;;;;;16.54;85.69;99618.28;714559;1200;114833;-75
2021/08/01 04:56:13;;;;;;;5.70;3.00;;;;;;;17.29;85.21;99622.09;714717;1200;115098;-78
2021/08/01 05:11:16;;;;;;;6.90;2.43;;;;;;;18.10;83.34;99641.03;714647;1199;114340;-76
2021/08/01 05:26:18;;;;;;;5.10;2.90;;;;;;;18.51;82.88;99639.27;714464;1199;114348;-76
2021/08/01 05:41:21;;;;;;;5.50;2.98;;;;;;;18.97;83.02;99633.16;714351;1200;115037;-76
2021/08/01 05:56:23;;;;;;;5.18;2.23;;;;;;;19.40;82.46;99653.95;714409;1200;114552;-75
2021/08/01 06:11:25;;;;;;;3.83;2.10;;;;;;;19.75;81.97;99652.81;714514;1199;114067;-76
2021/08/01 06:26:27;;;;;;;2.88;2.20;;;;;;;20.08;80.11;99658.00;714797;1200;113603;-76
2021/08/01 06:41:29;;;;;;;3.53;2.20;;;;;;;20.78;80.09;99651.85;714394;1199;114510;-75
2021/08/01 06:56:31;;;;;;;4.83;1.60;;;;;;;21.44;77.70;99649.58;714225;1203;114227;-78
2021/08/01 07:11:34;;;;;;;3.10;1.63;;;;;;;22.28;75.18;99640.11;714773;1200;115505;-76
2021/08/01 07:26:36;;;;;;;2.08;1.85;;;;;;;22.37;73.81;99640.61;715744;1199;113651;-75
2021/08/01 07:41:38;;;;;;;2.98;1.90;;;;;;;22.35;72.62;99643.52;714505;1203;113875;-77
2021/08/01 07:56:40;;;;;;;3.30;2.00;;;;;;;22.77;72.14;99645.34;715485;1200;113691;-80
2021/08/01 08:11:43;;;;;;;1.83;1.55;;;;;;;23.63;70.87;99649.38;715587;1199;114520;-81
2021/08/01 08:26:45;;;;;;;4.67;1.97;;;;;;;24.91;68.54;99640.13;715017;1202;114480;-80
2021/08/01 08:41:49;;;;;;;2.10;1.40;;;;;;;25.17;65.71;99632.45;715201;1200;115011;-78
2021/08/01 08:56:54;;;;;;;2.68;1.43;;;;;;;25.62;63.22;99634.11;716097;1199;114158;-80
2021/08/01 09:11:57;;;;;;;3.70;2.20;;;;;;;26.37;61.38;99614.73;716523;1203;114083;-78
2021/08/01 09:27:02;;;;;;;4.70;1.95;;;;;;;26.06;58.53;99614.45;716251;1200;113321;-80
2021/08/01 09:42:04;;;;;;;2.93;1.15;;;;;;;26.32;57.93;99604.74;716332;1199;114258;-86
2021/08/01 09:57:07;;;;;;;2.80;1.70;;;;;;;26.57;57.63;99596.06;716635;1200;113689;-85
2021/08/01 10:12:11;;;;;;;2.20;1.70;;;;;;;26.39;57.03;99588.39;716461;1200;113472;-85
2021/08/01 10:27:16;;;;;;;3.15;1.30;;;;;;;26.29;57.10;99582.93;715765;1177;113721;-80
2021/08/01 10:42:21;;;;;;;1.80;1.35;;;;;;;25.83;56.91;99586.00;715171;1176;114145;-78
2021/08/01 10:57:25;;;;;;;2.27;1.30;;;;;;;25.36;57.75;99579.30;714445;1176;114318;-79
2021/08/01 11:12:33;;;;;;;1.35;1.15;;;;;;;25.31;57.94;99566.59;715221;1203;114974;-79
2021/08/01 11:27:37;;;;;;;1.60;1.30;;;;;;;25.26;58.16;99571.92;715493;1199;113658;-81
2021/08/01 11:42:40;;;;;;;3.03;1.50;;;;;;;25.44;58.40;99549.33;716351;1199;114441;-86
2021/08/01 11:57:50;;;;;;;3.05;1.35;;;;;;;25.22;59.63;99560.88;716361;1200;113062;-86
2021/08/01 12:12:56;;;;;;;5.03;1.50;;;;;;;24.86;60.00;99573.00;715116;1200;114127;-73
2021/08/01 12:27:58;;;;;;;9.45;1.70;;;;;;;24.70;60.18;99580.81;714521;1202;114291;-70
2021/08/01 12:43:08;;;;;;;5.03;1.70;;;;;;;24.41;60.68;99588.95;716693;1200;114870;-79
2021/08/01 12:58:12;;;;;;;4.18;1.95;;;;;;;24.22;60.90;99598.27;718594;1181;113510;-79
2021/08/01 13:13:16;;;;;;;5.33;1.83;;;;;;;24.06;62.57;99581.93;715896;1200;113631;-79
2021/08/01 13:28:44;;;;;;;3.78;1.80;;;;;;;24.23;62.03;99565.88;716474;1176;115356;-79
2021/08/01 13:44:10;;;;;;;4.83;2.30;;;;;;;24.09;62.97;99554.65;715394;1199;113901;-77
2021/08/01 13:59:12;;;;;;;4.00;2.13;;;;;;;24.04;63.15;99541.17;715631;1199;113303;-81
2021/08/01 14:14:14;;;;;;;3.80;2.20;;;;;;;24.19;63.63;99540.63;716208;1204;113876;-79
2021/08/01 14:29:22;;;;;;;3.53;2.00;;;;;;;24.45;64.38;99534.85;716747;1191;113344;-78
2021/08/01 14:44:24;;;;;;;6.33;2.45;;;;;;;23.30;70.71;99543.81;717713;1199;114855;-79
2021/08/01 14:59:32;;;;;;;3.58;2.85;;;;;;;21.70;82.89;99545.44;717114;1176;113524;-80
2021/08/01 15:14:49;;;;;;;4.90;2.88;;;;;;;21.05;87.85;99531.63;716455;1175;113612;-80
2021/08/01 15:29:51;;;;;;;5.65;3.35;;;;;;;21.22;90.63;99529.17;716910;1177;113539;-80
2021/08/01 15:44:57;;;;;;;3.10;2.33;;;;;;;20.99;93.19;99510.38;716397;1175;113684;-77
2021/08/01 16:00:03;;;;;;;4.70;3.80;;;;;;;20.78;95.73;99505.27;715401;1200;113370;-81
2021/08/01 16:15:08;;;;;;;4.78;2.80;;;;;;;20.87;95.96;99505.77;716570;1175;113654;-80
2021/08/01 16:30:18;;;;;;;4.80;3.68;;;;;;;20.80;96.72;99482.89;716486;1200;113661;-81
2021/08/01 16:45:24;;;;;;;62.55;18.83;;;;;;;20.84;98.39;99474.24;715434;1177;113614;-86
2021/08/01 17:00:26;;;;;;;35.83;15.03;;;;;;;20.88;94.63;99470.09;715182;1178;114083;-77
2021/08/01 17:15:30;;;;;;;5.70;3.60;;;;;;;20.48;93.53;99459.02;715373;1175;113996;-78
2021/08/01 17:30:39;;;;;;;5.43;2.48;;;;;;;20.39;93.26;99464.64;715707;1200;113705;-80
2021/08/01 17:45:45;;;;;;;9.05;4.95;;;;;;;20.25;93.38;99479.11;716383;1176;114025;-79
2021/08/01 18:00:48;;;;;;;4.03;2.10;;;;;;;20.17;93.02;99482.85;716621;1177;113762;-80
2021/08/01 18:15:55;;;;;;;8.10;2.65;;;;;;;19.84;93.99;99496.42;715414;1175;113604;-79
2021/08/01 18:30:57;;;;;;;4.10;2.15;;;;;;;19.69;93.14;99494.84;715501;1177;113499;-76
2021/08/01 18:46:00;;;;;;;4.68;3.38;;;;;;;19.72;93.58;99486.42;715305;1176;114212;-75
2021/08/01 19:01:04;;;;;;;4.00;2.93;;;;;;;19.59;92.65;99457.25;715578;1177;113763;-76
2021/08/01 19:16:32;;;;;;;5.10;2.70;;;;;;;19.44;93.62;99453.05;715988;1176;114307;-74
2021/08/01 19:31:41;;;;;;;4.23;2.28;;;;;;;19.40;93.38;99441.20;715191;1200;113621;-76
2021/08/01 19:46:47;;;;;;;5.00;2.40;;;;;;;19.20;93.36;99473.22;715828;1199;114161;-74
2021/08/01 20:01:50;;;;;;;9.23;4.25;;;;;;;19.19;94.60;99484.05;715594;1200;115117;-75
2021/08/01 20:16:53;;;;;;;9.38;4.00;;;;;;;19.19;94.98;99479.56;715526;1200;114659;-77
2021/08/01 20:31:56;;;;;;;6.63;3.30;;;;;;;19.19;95.72;99452.98;715939;1200;114747;-76
2021/08/01 20:46:58;;;;;;;5.50;3.60;;;;;;;19.17;96.36;99448.90;715142;1202;113598;-76
2021/08/01 21:02:00;;;;;;;4.75;3.00;;;;;;;18.91;96.19;99459.43;715102;1205;113185;-76
2021/08/01 21:17:02;;;;;;;6.45;3.43;;;;;;;18.92;96.31;99457.58;715267;1200;114047;-76
2021/08/01 21:32:05;;;;;;;5.57;2.43;;;;;;;18.90;97.03;99457.80;714902;1176;113694;-76
2021/08/01 21:47:07;;;;;;;2.83;2.38;;;;;;;18.89;97.10;99450.84;714865;1200;115297;-75
2021/08/01 22:02:12;;;;;;;6.70;3.03;;;;;;;18.84;97.98;99455.13;714129;1176;114241;-77
2021/08/01 22:17:14;;;;;;;5.63;3.47;;;;;;;18.67;98.47;99466.20;714353;1200;113700;-76
2021/08/01 22:32:19;;;;;;;7.00;2.93;;;;;;;18.40;99.78;99445.02;714111;1200;113957;-75
2021/08/01 22:47:28;;;;;;;4.83;3.15;;;;;;;18.52;100.00;99437.23;714116;1199;114066;-76
2021/08/01 23:02:31;;;;;;;6.73;3.68;;;;;;;18.46;100.00;99422.95;714255;1203;114560;-76
2021/08/01 23:18:05;;;;;;;4.48;2.93;;;;;;;18.40;100.00;99386.61;713935;1177;113882;-76
2021/08/01 23:33:09;;;;;;;6.10;3.45;;;;;;;18.58;100.00;99377.16;714193;1200;114293;-75
2021/08/01 23:48:22;;;;;;;5.18;3.15;;;;;;;18.28;100.00;99365.19;714193;1189;116028;-76
